createdAt,value
2018-06-23T00:01:51.537Z,70.93
2018-06-23T00:04:20.026Z,69.39
2018-06-23T00:06:48.392Z,70.14
2018-06-23T00:09:16.716Z,69.77
2018-06-23T00:11:45.053Z,70.68
2018-06-23T00:14:13.428Z,70.82
2018-06-23T00:16:41.811Z,69.16
2018-06-23T00:19:10.148Z,70.23
2018-06-23T00:21:38.492Z,69.64
2018-06-23T00:24:07.180Z,70.00
2018-06-23T00:26:35.537Z,69.37
2018-06-23T00:29:03.970Z,70.21
2018-06-23T00:31:32.293Z,71.09
2018-06-23T00:34:00.628Z,70.95
2018-06-23T00:36:28.970Z,71.81
2018-06-23T00:38:57.287Z,71.22
2018-06-23T00:41:26.198Z,70.66
2018-06-23T00:43:54.585Z,69.94
2018-06-23T00:46:22.965Z,69.96
2018-06-23T00:48:52.155Z,71.49
2018-06-23T00:51:20.522Z,69.28
2018-06-23T00:53:48.916Z,70.35
2018-06-23T00:56:17.299Z,69.80
2018-06-23T00:58:56.999Z,71.02
2018-06-23T01:01:25.331Z,69.78
2018-06-23T01:03:53.820Z,70.70
2018-06-23T01:06:22.149Z,71.03
2018-06-23T01:08:50.472Z,70.52
2018-06-23T01:11:18.806Z,70.21
2018-06-23T01:13:47.139Z,69.97
2018-06-23T01:16:15.460Z,69.33
2018-06-23T01:18:43.807Z,69.71
2018-06-23T01:21:12.165Z,68.95
2018-06-23T01:23:40.482Z,68.96
2018-06-23T01:26:08.842Z,69.09
2018-06-23T01:28:37.151Z,68.73
2018-06-23T01:31:05.539Z,69.28
2018-06-23T01:33:33.844Z,68.97
2018-06-23T01:36:02.201Z,68.64
2018-06-23T01:38:30.552Z,69.33
2018-06-23T01:40:58.892Z,68.49
2018-06-23T01:43:27.238Z,68.67
2018-06-23T01:45:55.587Z,68.78
2018-06-23T01:48:23.914Z,68.53
2018-06-23T01:50:52.272Z,67.93
2018-06-23T01:53:20.636Z,67.74
2018-06-23T01:55:50.599Z,68.06
2018-06-23T01:58:18.928Z,67.42
2018-06-23T02:00:47.387Z,68.23
2018-06-23T02:03:15.710Z,67.92
2018-06-23T02:05:44.051Z,67.81
2018-06-23T02:08:12.380Z,67.53
2018-06-23T02:10:40.722Z,67.35
2018-06-23T02:13:09.272Z,67.40
2018-06-23T02:15:42.906Z,67.49
2018-06-23T02:18:16.544Z,67.10
2018-06-23T02:20:50.362Z,66.95
2018-06-23T02:23:23.884Z,67.11
2018-06-23T02:25:57.595Z,66.57
2018-06-23T02:28:31.360Z,67.39
2018-06-23T02:31:04.879Z,67.23
2018-06-23T02:33:38.591Z,66.87
2018-06-23T02:36:06.969Z,67.04
2018-06-23T02:38:35.304Z,67.24
2018-06-23T02:41:03.663Z,67.21
2018-06-23T02:43:32.030Z,66.76
2018-06-23T02:46:00.349Z,66.62
2018-06-23T02:48:28.701Z,66.57
2018-06-23T02:50:57.029Z,66.53
2018-06-23T02:53:25.388Z,66.67
2018-06-23T02:55:53.721Z,66.05
2018-06-23T02:58:22.218Z,65.61
2018-06-23T03:00:50.535Z,65.90
2018-06-23T03:03:18.871Z,65.90
2018-06-23T03:05:47.205Z,65.35
2018-06-23T03:08:15.682Z,65.96
2018-06-23T03:10:44.033Z,65.78
2018-06-23T03:13:12.428Z,65.56
2018-06-23T03:15:40.754Z,65.59
2018-06-23T03:18:09.131Z,66.11
2018-06-23T03:20:37.465Z,66.35
2018-06-23T03:23:05.804Z,66.12
2018-06-23T03:25:34.165Z,66.13
2018-06-23T03:28:02.498Z,66.16
2018-06-23T03:30:30.819Z,66.27
2018-06-23T03:32:59.171Z,66.83
2018-06-23T03:35:27.526Z,65.70
2018-06-23T03:37:55.854Z,65.82
2018-06-23T03:40:24.203Z,65.89
2018-06-23T03:42:52.531Z,65.89
2018-06-23T03:45:20.893Z,65.51
2018-06-23T03:47:49.224Z,66.13
2018-06-23T03:50:17.584Z,65.96
2018-06-23T03:52:45.927Z,65.94
2018-06-23T03:55:14.274Z,66.03
2018-06-23T03:57:42.600Z,65.58
2018-06-23T04:00:10.941Z,66.35
2018-06-23T04:02:39.312Z,66.49
2018-06-23T04:05:07.706Z,65.86
2018-06-23T04:07:36.095Z,65.80
2018-06-23T04:10:04.449Z,66.18
2018-06-23T04:12:32.768Z,65.80
2018-06-23T04:15:01.098Z,65.83
2018-06-23T04:17:29.613Z,65.94
2018-06-23T04:19:57.943Z,66.34
2018-06-23T04:22:26.299Z,65.75
2018-06-23T04:24:54.622Z,66.02
2018-06-23T04:27:22.944Z,66.59
2018-06-23T04:29:51.496Z,66.96
2018-06-23T04:32:19.843Z,66.89
2018-06-23T04:34:48.351Z,67.09
2018-06-23T04:37:16.659Z,66.48
2018-06-23T04:39:45.041Z,66.98
2018-06-23T04:42:13.420Z,66.76
2018-06-23T04:44:42.618Z,66.15
2018-06-23T04:47:10.956Z,66.84
2018-06-23T04:49:39.334Z,66.70
2018-06-23T04:52:07.662Z,67.17
2018-06-23T04:54:36.000Z,67.35
2018-06-23T04:57:04.337Z,66.90
2018-06-23T04:59:32.651Z,66.89
2018-06-23T05:02:01.066Z,67.14
2018-06-23T05:04:29.414Z,66.94
2018-06-23T05:06:57.792Z,67.00
2018-06-23T05:09:26.130Z,66.64
2018-06-23T05:11:54.441Z,66.74
2018-06-23T05:14:22.786Z,66.38
2018-06-23T05:16:51.140Z,66.69
2018-06-23T05:19:19.490Z,67.41
2018-06-23T05:21:47.826Z,67.41
2018-06-23T05:24:16.208Z,67.14
2018-06-23T05:26:44.553Z,67.26
2018-06-23T05:29:12.898Z,67.07
2018-06-23T05:31:41.258Z,67.39
2018-06-23T05:34:09.589Z,67.65
2018-06-23T05:36:37.947Z,67.22
2018-06-23T05:39:08.289Z,66.78
2018-06-23T05:41:36.632Z,67.20
2018-06-23T05:44:05.246Z,66.68
2018-06-23T05:46:33.713Z,66.54
2018-06-23T05:49:02.043Z,65.98
2018-06-23T05:51:30.420Z,66.17
2018-06-23T05:53:59.519Z,65.96
2018-06-23T05:56:27.903Z,65.57
2018-06-23T05:58:56.755Z,65.51
2018-06-23T06:01:25.101Z,65.72
2018-06-23T06:03:53.446Z,65.85
2018-06-23T06:06:21.791Z,65.93
2018-06-23T06:08:50.135Z,65.95
2018-06-23T06:11:18.451Z,66.18
2018-06-23T06:13:46.793Z,66.18
2018-06-23T06:16:15.196Z,65.70
2018-06-23T06:18:43.483Z,65.41
2018-06-23T06:21:11.819Z,66.03
2018-06-23T06:23:40.233Z,65.71
2018-06-23T06:26:08.584Z,66.02
2018-06-23T06:28:36.931Z,65.70
2018-06-23T06:31:05.274Z,66.25
2018-06-23T06:33:33.615Z,66.16
2018-06-23T06:36:01.942Z,67.21
2018-06-23T06:38:30.308Z,68.54
2018-06-23T06:40:58.655Z,67.63
2018-06-23T06:43:26.966Z,69.65
2018-06-23T06:45:55.329Z,69.34
2018-06-23T06:48:23.642Z,70.20
2018-06-23T06:50:51.991Z,71.25
2018-06-23T06:53:20.330Z,71.33
2018-06-23T06:55:48.682Z,72.66
2018-06-23T06:58:17.055Z,73.12
2018-06-23T07:00:45.485Z,73.95
2018-06-23T07:03:13.810Z,74.68
2018-06-23T07:05:42.723Z,75.24
2018-06-23T07:08:11.063Z,75.62
2018-06-23T07:10:39.413Z,75.39
2018-06-23T07:13:07.771Z,76.68
2018-06-23T07:15:36.114Z,76.17
2018-06-23T07:18:04.525Z,74.00
2018-06-23T07:20:32.864Z,74.70
2018-06-23T07:23:01.203Z,75.31
2018-06-23T07:25:29.534Z,75.56
2018-06-23T07:27:57.872Z,76.54
2018-06-23T07:30:26.204Z,75.42
2018-06-23T07:32:54.545Z,75.37
2018-06-23T07:35:23.246Z,76.34
2018-06-23T07:37:51.610Z,76.94
2018-06-23T07:40:19.925Z,76.29
2018-06-23T07:42:48.400Z,75.17
2018-06-23T07:45:16.747Z,76.46
2018-06-23T07:47:45.071Z,75.63
2018-06-23T07:50:13.607Z,74.86
2018-06-23T07:52:41.991Z,73.64
2018-06-23T07:55:10.440Z,74.27
2018-06-23T07:57:38.788Z,72.54
2018-06-23T08:00:07.127Z,71.55
2018-06-23T08:02:35.476Z,71.73
2018-06-23T08:05:04.093Z,71.80
2018-06-23T08:07:32.473Z,71.00
2018-06-23T08:10:00.879Z,70.68
2018-06-23T08:12:29.278Z,70.77
2018-06-23T08:14:57.673Z,71.65
2018-06-23T08:17:26.043Z,70.81
2018-06-23T08:19:54.408Z,71.62
2018-06-23T08:22:22.784Z,71.88
2018-06-23T08:24:51.149Z,71.49
2018-06-23T08:27:19.472Z,71.27
2018-06-23T08:29:47.815Z,71.66
2018-06-23T08:32:16.333Z,71.57
2018-06-23T08:34:44.679Z,72.12
2018-06-23T08:37:13.092Z,72.00
2018-06-23T08:39:41.406Z,71.53
2018-06-23T08:42:09.703Z,71.59
2018-06-23T08:44:38.063Z,70.42
2018-06-23T08:47:06.459Z,70.55
2018-06-23T08:49:34.807Z,70.61
2018-06-23T08:52:03.129Z,70.41
2018-06-23T08:54:31.506Z,70.33
2018-06-23T08:56:59.916Z,70.51
2018-06-23T08:59:28.248Z,69.63
2018-06-23T09:01:56.635Z,70.40
2018-06-23T09:04:25.089Z,70.12
2018-06-23T09:06:53.434Z,69.91
2018-06-23T09:09:21.887Z,70.41
2018-06-23T09:11:50.220Z,69.22
2018-06-23T09:14:18.531Z,68.76
2018-06-23T09:16:46.912Z,69.21
2018-06-23T09:19:15.250Z,68.56
2018-06-23T09:21:43.576Z,68.79
2018-06-23T09:24:11.916Z,68.85
2018-06-23T09:26:40.273Z,68.64
2018-06-23T09:29:08.613Z,68.93
2018-06-23T09:31:37.666Z,68.65
2018-06-23T09:34:06.036Z,68.61
2018-06-23T09:36:34.370Z,67.97
2018-06-23T09:39:02.716Z,68.67
2018-06-23T09:41:31.051Z,67.87
2018-06-23T09:43:59.376Z,68.27
2018-06-23T09:46:27.770Z,67.54
2018-06-23T09:48:56.123Z,68.04
2018-06-23T09:51:24.694Z,68.15
2018-06-23T09:53:53.007Z,67.75
2018-06-23T09:56:21.734Z,68.27
2018-06-23T09:58:50.102Z,67.67
2018-06-23T10:01:18.473Z,67.46
2018-06-23T10:03:46.831Z,67.30
2018-06-23T10:06:15.180Z,67.75
2018-06-23T10:08:43.534Z,67.53
2018-06-23T10:11:11.863Z,67.19
2018-06-23T10:13:40.449Z,67.01
2018-06-23T10:16:08.891Z,66.46
2018-06-23T10:18:37.220Z,62.95
2018-06-23T10:21:05.581Z,63.10
2018-06-23T10:23:33.924Z,62.87
2018-06-23T10:26:02.305Z,62.52
2018-06-23T10:28:30.628Z,61.25
2018-06-23T10:30:58.975Z,59.95
2018-06-23T10:33:27.379Z,60.61
2018-06-23T10:35:55.719Z,59.40
2018-06-23T10:38:24.113Z,60.75
2018-06-23T10:40:52.416Z,58.93
2018-06-23T10:43:20.862Z,60.65
2018-06-23T10:45:49.355Z,60.64
2018-06-23T10:48:17.805Z,60.43
2018-06-23T10:50:46.136Z,60.01
2018-06-23T10:53:14.490Z,58.36
2018-06-23T10:55:42.825Z,58.97
2018-06-23T10:58:11.177Z,56.17
2018-06-23T11:00:39.804Z,55.60
2018-06-23T11:03:08.212Z,56.23
2018-06-23T11:05:36.532Z,55.39
2018-06-23T11:08:04.942Z,56.84
2018-06-23T11:10:33.272Z,56.79
2018-06-23T11:13:01.639Z,55.92
2018-06-23T11:15:30.009Z,55.35
2018-06-23T11:17:58.439Z,54.38
2018-06-23T11:20:26.819Z,56.20
2018-06-23T11:22:55.146Z,55.90
2018-06-23T11:25:23.509Z,54.79
2018-06-23T11:27:51.855Z,54.82
2018-06-23T11:30:20.175Z,56.13
2018-06-23T11:32:48.515Z,54.41
2018-06-23T11:35:16.855Z,53.36
2018-06-23T11:37:45.204Z,53.26
2018-06-23T11:40:13.533Z,51.65
2018-06-23T11:42:41.848Z,52.58
2018-06-23T11:45:10.251Z,51.38
2018-06-23T11:47:38.727Z,52.30
2018-06-23T11:50:07.146Z,53.07
2018-06-23T11:52:35.524Z,51.76
2018-06-23T11:55:03.898Z,51.74
2018-06-23T11:57:32.232Z,51.58
2018-06-23T12:00:00.564Z,53.16
2018-06-23T12:02:28.917Z,54.96
2018-06-23T12:04:57.268Z,55.75
2018-06-23T12:07:25.600Z,56.71
2018-06-23T12:09:53.941Z,57.30
2018-06-23T12:12:22.256Z,57.76
2018-06-23T12:14:50.659Z,59.64
2018-06-23T12:17:18.984Z,57.88
2018-06-23T12:19:47.322Z,58.23
2018-06-23T12:22:15.648Z,58.81
2018-06-23T12:24:43.999Z,58.98
2018-06-23T12:27:12.495Z,59.46
2018-06-23T12:29:41.172Z,58.69
2018-06-23T12:32:09.642Z,58.66
2018-06-23T12:34:38.139Z,57.89
2018-06-23T12:37:06.592Z,58.71
2018-06-23T12:39:35.000Z,58.35
2018-06-23T12:42:03.351Z,58.80
2018-06-23T12:44:31.692Z,58.22
2018-06-23T12:47:00.048Z,58.44
2018-06-23T12:49:28.496Z,57.06
2018-06-23T12:51:56.923Z,57.22
2018-06-23T12:54:25.691Z,57.60
2018-06-23T12:56:54.693Z,57.15
2018-06-23T12:59:23.045Z,58.23
2018-06-23T13:01:51.526Z,58.12
2018-06-23T13:04:19.902Z,58.28
2018-06-23T13:06:48.273Z,58.79
2018-06-23T13:09:16.790Z,59.10
2018-06-23T13:11:45.135Z,58.84
2018-06-23T13:14:13.491Z,59.33
2018-06-23T13:16:41.959Z,59.64
2018-06-23T13:19:10.276Z,62.18
2018-06-23T13:21:38.588Z,64.38
2018-06-23T13:24:07.014Z,66.89
2018-06-23T13:26:35.338Z,65.42
2018-06-23T13:29:03.794Z,66.10
2018-06-23T13:31:32.128Z,67.81
2018-06-23T13:34:00.448Z,67.41
2018-06-23T13:36:28.832Z,66.21
2018-06-23T13:38:57.143Z,67.74
2018-06-23T13:41:25.548Z,65.59
2018-06-23T13:43:53.900Z,66.35
2018-06-23T13:46:22.452Z,65.75
2018-06-23T13:48:50.826Z,65.50
2018-06-23T13:51:19.435Z,65.67
2018-06-23T13:53:48.064Z,65.15
2018-06-23T13:56:16.399Z,64.83
2018-06-23T13:58:44.757Z,65.31
2018-06-23T14:01:13.130Z,65.43
2018-06-23T14:03:41.791Z,64.85
2018-06-23T14:06:10.265Z,63.67
2018-06-23T14:08:38.944Z,62.19
2018-06-23T14:11:07.334Z,62.26
2018-06-23T14:13:35.694Z,61.74
2018-06-23T14:16:04.174Z,61.67
2018-06-23T14:18:33.116Z,61.05
2018-06-23T14:21:01.470Z,61.34
2018-06-23T14:23:29.873Z,61.90
2018-06-23T14:25:58.223Z,61.93
2018-06-23T14:28:27.145Z,61.69
2018-06-23T14:30:55.494Z,61.85
2018-06-23T14:33:23.825Z,61.86
2018-06-23T14:35:52.706Z,61.58
2018-06-23T14:38:21.071Z,62.52
2018-06-23T14:40:49.451Z,61.67
2018-06-23T14:43:17.833Z,62.63
2018-06-23T14:45:46.340Z,62.16
2018-06-23T14:48:14.832Z,62.24
2018-06-23T14:50:43.235Z,62.07
2018-06-23T14:53:11.614Z,62.50
2018-06-23T14:55:40.001Z,62.91
2018-06-23T14:58:08.385Z,62.81
2018-06-23T15:00:36.921Z,63.89
2018-06-23T15:03:05.272Z,63.93
2018-06-23T15:05:33.928Z,64.28
2018-06-23T15:08:13.671Z,64.16
2018-06-23T15:11:56.511Z,65.16
2018-06-23T15:14:24.869Z,66.60
2018-06-23T15:16:53.210Z,65.76
2018-06-23T15:19:21.563Z,65.32
2018-06-23T15:21:49.968Z,70.35
2018-06-23T15:24:18.859Z,71.86
2018-06-23T15:26:47.217Z,72.01
2018-06-23T15:29:15.568Z,71.94
2018-06-23T15:31:44.022Z,73.71
2018-06-23T15:34:12.652Z,73.54
2018-06-23T15:36:41.005Z,74.16
2018-06-23T15:39:10.239Z,74.84
2018-06-23T15:41:38.739Z,72.67
2018-06-23T15:44:07.098Z,73.31
2018-06-23T15:46:35.751Z,73.01
2018-06-23T15:49:04.409Z,72.95
2018-06-23T15:51:32.778Z,74.41
2018-06-23T15:54:01.295Z,72.16
2018-06-23T15:56:29.965Z,72.79
2018-06-23T15:58:58.329Z,73.00
2018-06-23T16:01:26.778Z,74.90
2018-06-23T16:03:55.216Z,73.37
2018-06-23T16:06:23.778Z,72.88
2018-06-23T16:08:52.244Z,75.06
2018-06-23T16:11:20.565Z,73.63
2018-06-23T16:13:48.904Z,76.37
2018-06-23T16:16:17.255Z,75.22
2018-06-23T16:18:45.735Z,74.56
2018-06-23T16:21:14.348Z,73.94
2018-06-23T16:23:42.773Z,74.68
2018-06-23T16:26:11.211Z,75.62
2018-06-23T16:28:39.656Z,76.22
2018-06-23T16:31:07.951Z,74.35
2018-06-23T16:33:36.284Z,73.90
2018-06-23T16:36:05.251Z,74.18
2018-06-23T16:38:33.621Z,73.47
2018-06-23T16:41:01.973Z,72.84
2018-06-23T16:43:30.310Z,73.29
2018-06-23T16:45:58.760Z,72.02
2018-06-23T16:48:27.113Z,72.57
2018-06-23T16:50:55.481Z,72.77
2018-06-23T16:53:24.184Z,73.35
2018-06-23T16:55:52.571Z,71.85
2018-06-23T16:58:20.932Z,72.37
2018-06-23T17:00:49.290Z,71.87
2018-06-23T17:03:17.648Z,72.85
2018-06-23T17:05:46.069Z,71.33
2018-06-23T17:08:14.451Z,72.81
2018-06-23T17:10:42.797Z,72.31
2018-06-23T17:13:11.175Z,72.08
2018-06-23T17:15:39.556Z,72.29
2018-06-23T17:18:08.906Z,72.63
2018-06-23T17:20:37.491Z,71.67
2018-06-23T17:23:05.978Z,71.74
2018-06-23T17:25:34.344Z,72.48
2018-06-23T17:28:02.779Z,71.32
2018-06-23T17:30:31.158Z,71.39
2018-06-23T17:32:59.694Z,71.76
2018-06-23T17:35:28.119Z,71.27
2018-06-23T17:37:56.499Z,71.11
2018-06-23T17:40:24.917Z,71.43
2018-06-23T17:42:53.293Z,71.51
2018-06-23T17:45:22.360Z,71.12
2018-06-23T17:47:50.742Z,72.49
2018-06-23T17:50:19.095Z,73.25
2018-06-23T17:52:47.451Z,72.69
2018-06-23T17:55:15.835Z,72.39
2018-06-23T17:57:44.395Z,72.89
2018-06-23T18:00:12.728Z,73.33
2018-06-23T18:02:41.272Z,73.11
2018-06-23T18:05:09.632Z,72.71
2018-06-23T18:07:37.962Z,73.21
2018-06-23T18:10:06.660Z,74.31
2018-06-23T18:12:35.201Z,73.27
2018-06-23T18:15:03.683Z,73.48
2018-06-23T18:17:32.100Z,72.53
2018-06-23T18:20:00.585Z,74.03
2018-06-23T18:22:30.496Z,75.08
2018-06-23T18:24:58.838Z,73.52
2018-06-23T18:27:27.212Z,75.11
2018-06-23T18:29:55.632Z,76.09
2018-06-23T18:32:24.020Z,74.92
2018-06-23T18:34:52.391Z,75.23
2018-06-23T18:37:20.776Z,76.17
2018-06-23T18:39:49.141Z,76.03
2018-06-23T18:42:17.492Z,75.08
2018-06-23T18:44:45.946Z,75.13
2018-06-23T18:47:14.325Z,74.45
2018-06-23T18:49:42.672Z,76.48
2018-06-23T18:52:11.047Z,76.46
2018-06-23T18:54:39.388Z,76.58
2018-06-23T18:57:07.777Z,77.65
2018-06-23T18:59:36.148Z,77.39
2018-06-23T19:02:04.561Z,77.39
2018-06-23T19:04:32.939Z,77.55
2018-06-23T19:07:01.880Z,77.35
2018-06-23T19:09:30.207Z,78.45
2018-06-23T19:11:58.590Z,78.22
2018-06-23T19:14:26.991Z,78.63
2018-06-23T19:16:55.460Z,78.17
2018-06-23T19:19:24.303Z,79.73
2018-06-23T19:21:52.830Z,79.80
2018-06-23T19:24:21.305Z,78.53
2018-06-23T19:26:49.984Z,77.49
2018-06-23T19:29:18.344Z,79.27
2018-06-23T19:31:46.705Z,80.19
2018-06-23T19:34:15.061Z,78.86
2018-06-23T19:36:43.408Z,80.90
2018-06-23T19:39:12.158Z,82.80
2018-06-23T19:41:40.508Z,79.59
2018-06-23T19:44:09.024Z,79.64
2018-06-23T19:46:37.334Z,79.89
2018-06-23T19:49:05.749Z,82.36
2018-06-23T19:51:34.078Z,81.42
2018-06-23T19:54:02.472Z,80.17
2018-06-23T19:56:30.803Z,80.66
2018-06-23T19:58:59.211Z,82.73
2018-06-23T20:01:27.504Z,81.88
2018-06-23T20:03:55.849Z,82.22
2018-06-23T20:06:24.200Z,82.07
2018-06-23T20:08:52.561Z,82.48
2018-06-23T20:11:20.891Z,81.11
2018-06-23T20:13:49.304Z,83.77
2018-06-23T20:16:17.634Z,83.84
2018-06-23T20:18:45.957Z,83.14
2018-06-23T20:21:14.295Z,83.12
2018-06-23T20:23:42.674Z,82.80
2018-06-23T20:26:11.049Z,81.96
2018-06-23T20:28:39.501Z,82.67
2018-06-23T20:31:07.914Z,82.06
2018-06-23T20:33:36.219Z,82.12
2018-06-23T20:36:04.680Z,81.87
2018-06-23T20:38:33.025Z,83.23
2018-06-23T20:41:01.372Z,82.55
2018-06-23T20:43:29.746Z,84.40
2018-06-23T20:45:58.194Z,84.21
2018-06-23T20:48:26.557Z,83.16
2018-06-23T20:50:54.919Z,84.38
2018-06-23T20:53:23.300Z,85.81
2018-06-23T20:55:51.674Z,85.18
2018-06-23T20:58:20.012Z,84.03
2018-06-23T21:00:48.359Z,84.41
2018-06-23T21:03:16.726Z,84.70
2018-06-23T21:05:45.127Z,84.08
2018-06-23T21:08:13.496Z,83.99
2018-06-23T21:10:47.200Z,85.22
2018-06-23T21:13:15.541Z,84.52
2018-06-23T21:15:43.869Z,85.06
2018-06-23T21:18:12.273Z,85.00
2018-06-23T21:20:40.633Z,84.27
2018-06-23T21:23:09.011Z,85.52
2018-06-23T21:25:37.454Z,84.85
2018-06-23T21:28:05.933Z,84.52
2018-06-23T21:30:34.295Z,85.39
2018-06-23T21:33:02.590Z,85.76
2018-06-23T21:35:30.914Z,85.99
2018-06-23T21:37:59.244Z,85.63
2018-06-23T21:40:27.647Z,85.21
2018-06-23T21:42:56.015Z,85.63
2018-06-23T21:45:24.436Z,84.63
2018-06-23T21:47:52.777Z,84.88
2018-06-23T21:50:21.092Z,86.12
2018-06-23T21:52:49.520Z,85.87
2018-06-23T21:55:17.882Z,86.55
2018-06-23T21:57:46.273Z,86.99
2018-06-23T22:00:37.119Z,85.73
2018-06-23T22:03:07.545Z,85.87
2018-06-23T22:05:36.092Z,85.81
2018-06-23T22:08:04.982Z,86.16
2018-06-23T22:10:33.389Z,84.87
2018-06-23T22:13:01.724Z,86.32
2018-06-23T22:15:30.065Z,86.79
2018-06-23T22:17:58.404Z,86.22
2018-06-23T22:20:26.726Z,85.68
2018-06-23T22:22:55.066Z,86.11
2018-06-23T22:25:23.773Z,85.88
2018-06-23T22:27:52.130Z,86.56
2018-06-23T22:30:21.244Z,86.50
2018-06-23T22:32:49.573Z,86.63
2018-06-23T22:35:17.989Z,86.23
2018-06-23T22:37:46.309Z,86.10
2018-06-23T22:40:14.643Z,87.07
2018-06-23T22:42:42.975Z,86.82
2018-06-23T22:45:11.304Z,86.53
2018-06-23T22:47:39.683Z,87.11
2018-06-23T22:50:08.903Z,87.02
2018-06-23T22:52:37.581Z,86.26
2018-06-23T22:55:06.324Z,86.46
2018-06-23T22:57:34.697Z,86.84
2018-06-23T23:00:03.050Z,86.90
2018-06-23T23:02:31.387Z,86.15
2018-06-23T23:04:59.738Z,86.31
2018-06-23T23:07:28.726Z,85.77
2018-06-23T23:09:57.512Z,86.66
2018-06-23T23:12:25.842Z,85.62
2018-06-23T23:14:54.174Z,86.11
2018-06-23T23:17:22.553Z,86.36
2018-06-23T23:19:50.883Z,86.05
2018-06-23T23:22:19.344Z,86.14
2018-06-23T23:24:47.640Z,86.08
2018-06-23T23:27:16.233Z,85.75
2018-06-23T23:29:44.583Z,86.68
2018-06-23T23:32:12.924Z,87.31
2018-06-23T23:34:41.273Z,86.98
2018-06-23T23:37:09.652Z,87.14
2018-06-23T23:39:37.982Z,87.22
2018-06-23T23:42:06.308Z,86.67
2018-06-23T23:44:34.615Z,85.81
2018-06-23T23:47:02.993Z,85.92
2018-06-23T23:49:31.374Z,86.31
2018-06-23T23:51:59.744Z,86.66
2018-06-23T23:54:28.092Z,86.95
2018-06-23T23:56:56.421Z,86.01
2018-06-23T23:59:24.749Z,85.84
